createdAt,value
2023-04-07T00:03:02.116Z,65.84
2023-04-07T00:06:09.327Z,65.32
2023-04-07T00:09:17.278Z,65.53
2023-04-07T00:12:26.341Z,65.32
2023-04-07T00:15:33.999Z,65.32
2023-04-07T00:18:42.165Z,65.22
2023-04-07T00:21:51.272Z,65.42
2023-04-07T00:24:55.683Z,65.32
2023-04-07T00:28:03.392Z,65.32
2023-04-07T00:31:12.357Z,65.32
2023-04-07T00:34:20.471Z,65.11
2023-04-07T00:37:28.086Z,64.80
2023-04-07T00:40:35.925Z,64.70
2023-04-07T00:43:45.386Z,64.39
2023-04-07T00:46:52.785Z,64.18
2023-04-07T00:50:00.782Z,64.18
2023-04-07T00:53:09.757Z,64.07
2023-04-07T00:56:17.528Z,64.07
2023-04-07T00:59:25.071Z,64.07
2023-04-07T01:02:34.718Z,63.97
2023-04-07T01:05:42.030Z,64.07
2023-04-07T01:08:50.096Z,64.00
2023-04-07T01:11:59.144Z,64.11
2023-04-07T01:15:06.504Z,64.21
2023-04-07T01:18:14.528Z,64.31
2023-04-07T01:21:23.333Z,64.31
2023-04-07T01:24:30.946Z,64.21
2023-04-07T01:27:38.478Z,64.42
2023-04-07T01:30:46.156Z,64.42
2023-04-07T01:33:55.563Z,64.31
2023-04-07T01:37:03.436Z,64.21
2023-04-07T01:40:11.353Z,64.11
2023-04-07T01:43:20.272Z,64.11
2023-04-07T01:46:28.118Z,64.03
2023-04-07T01:49:36.039Z,64.14
2023-04-07T01:52:44.673Z,64.24
2023-04-07T01:55:52.570Z,64.34
2023-04-07T01:59:00.444Z,64.34
2023-04-07T02:02:09.183Z,64.55
2023-04-07T02:05:17.141Z,64.97
2023-04-07T02:08:24.730Z,65.41
2023-04-07T02:11:32.184Z,66.14
2023-04-07T02:14:41.361Z,66.99
2023-04-07T02:17:49.228Z,67.10
2023-04-07T02:20:56.951Z,66.89
2023-04-07T02:24:05.702Z,66.93
2023-04-07T02:27:13.560Z,66.72
2023-04-07T02:30:21.236Z,66.58
2023-04-07T02:33:30.206Z,66.17
2023-04-07T02:36:37.949Z,66.17
2023-04-07T02:39:45.487Z,66.41
2023-04-07T02:42:54.622Z,66.51
2023-04-07T02:46:02.453Z,66.30
2023-04-07T02:49:09.750Z,66.41
2023-04-07T02:52:18.336Z,66.30
2023-04-07T02:55:27.516Z,66.41
2023-04-07T02:58:34.833Z,66.41
2023-04-07T03:01:42.413Z,66.51
2023-04-07T03:04:51.273Z,66.51
2023-04-07T03:07:59.083Z,66.51
2023-04-07T03:11:06.934Z,66.41
2023-04-07T03:14:15.828Z,66.20
2023-04-07T03:17:23.497Z,65.89
2023-04-07T03:20:31.621Z,66.20
2023-04-07T03:23:40.720Z,66.20
2023-04-07T03:26:48.350Z,66.33
2023-04-07T03:29:55.865Z,66.33
2023-04-07T03:33:05.205Z,66.33
2023-04-07T03:36:12.666Z,66.02
2023-04-07T03:39:20.367Z,66.12
2023-04-07T03:42:28.591Z,66.44
2023-04-07T03:45:37.975Z,66.64
2023-04-07T03:48:46.554Z,66.85
2023-04-07T03:51:54.792Z,67.06
2023-04-07T03:55:03.997Z,67.40
2023-04-07T03:58:11.748Z,67.82
2023-04-07T04:01:19.785Z,67.82
2023-04-07T04:04:29.073Z,67.61
2023-04-07T04:07:37.000Z,67.09
2023-04-07T04:10:44.975Z,66.88
2023-04-07T04:13:54.250Z,66.99
2023-04-07T04:17:02.328Z,66.88
2023-04-07T04:20:03.236Z,66.99
2023-04-07T04:23:10.753Z,67.19
2023-04-07T04:26:19.718Z,67.30
2023-04-07T04:29:27.403Z,67.30
2023-04-07T04:32:35.657Z,67.43
2023-04-07T04:35:45.003Z,68.16
2023-04-07T04:38:52.467Z,68.37
2023-04-07T04:42:00.460Z,68.57
2023-04-07T04:45:09.810Z,69.02
2023-04-07T04:48:17.806Z,69.23
2023-04-07T04:51:25.898Z,69.02
2023-04-07T04:54:35.058Z,69.43
2023-04-07T04:57:42.706Z,69.96
2023-04-07T05:00:50.788Z,70.37
2023-04-07T05:03:58.640Z,70.72
2023-04-07T05:07:08.784Z,71.23
2023-04-07T05:10:17.291Z,71.55
2023-04-07T05:13:24.776Z,71.75
2023-04-07T05:16:34.481Z,71.86
2023-04-07T05:19:42.446Z,71.75
2023-04-07T05:22:51.335Z,71.75
2023-04-07T05:26:01.312Z,71.55
2023-04-07T05:29:08.929Z,71.44
2023-04-07T05:32:16.275Z,71.62
2023-04-07T05:35:25.358Z,71.31
2023-04-07T05:38:32.946Z,71.51
2023-04-07T05:41:41.349Z,71.41
2023-04-07T05:44:50.780Z,71.41
2023-04-07T05:47:58.536Z,71.28
2023-04-07T05:51:06.309Z,70.97
2023-04-07T05:54:14.423Z,70.97
2023-04-07T05:57:23.252Z,70.86
2023-04-07T06:00:30.822Z,70.83
2023-04-07T06:03:38.742Z,70.72
2023-04-07T06:06:48.181Z,70.83
2023-04-07T06:09:56.036Z,69.55
2023-04-07T06:13:03.770Z,69.31
2023-04-07T06:16:13.461Z,69.00
2023-04-07T06:19:21.338Z,68.76
2023-04-07T06:22:28.894Z,68.10
2023-04-07T06:25:38.377Z,67.55
2023-04-07T06:28:46.060Z,67.11
2023-04-07T06:31:53.879Z,66.97
2023-04-07T06:35:01.910Z,65.60
2023-04-07T06:38:10.865Z,65.12
2023-04-07T06:41:18.739Z,63.65
2023-04-07T06:44:27.034Z,62.25
2023-04-07T06:47:36.170Z,62.22
2023-04-07T06:50:45.014Z,60.44
2023-04-07T06:53:53.435Z,60.41
2023-04-07T06:57:02.534Z,59.38
2023-04-07T07:00:10.388Z,59.14
2023-04-07T07:03:18.497Z,56.46
2023-04-07T07:06:27.631Z,57.18
2023-04-07T07:09:35.417Z,56.26
2023-04-07T07:12:43.051Z,56.46
2023-04-07T07:15:52.854Z,56.26
2023-04-07T07:19:00.570Z,55.51
2023-04-07T07:22:08.317Z,56.03
2023-04-07T07:25:16.326Z,56.34
2023-04-07T07:28:25.346Z,56.03
2023-04-07T07:31:32.936Z,55.28
2023-04-07T07:34:40.941Z,55.59
2023-04-07T07:37:50.270Z,54.22
2023-04-07T07:40:57.587Z,54.13
2023-04-07T07:44:05.405Z,54.74
2023-04-07T07:47:14.889Z,54.72
2023-04-07T07:50:22.283Z,53.45
2023-04-07T07:53:30.226Z,53.77
2023-04-07T07:56:39.229Z,54.25
2023-04-07T07:59:46.839Z,51.68
2023-04-07T08:02:55.277Z,52.40
2023-04-07T08:06:02.863Z,51.97
2023-04-07T08:09:11.738Z,52.04
2023-04-07T08:12:19.832Z,51.61
2023-04-07T08:15:27.817Z,50.90
2023-04-07T08:18:36.715Z,50.87
2023-04-07T08:21:44.973Z,50.97
2023-04-07T08:24:52.982Z,50.56
2023-04-07T08:28:02.204Z,50.23
2023-04-07T08:31:09.968Z,49.82
2023-04-07T08:34:18.056Z,49.80
2023-04-07T08:37:27.042Z,50.21
2023-04-07T08:40:35.112Z,49.59
2023-04-07T08:43:43.296Z,49.37
2023-04-07T08:46:51.440Z,49.65
2023-04-07T08:50:00.442Z,49.24
2023-04-07T08:53:08.721Z,49.11
2023-04-07T08:56:15.993Z,47.25
2023-04-07T08:59:25.582Z,45.53
2023-04-07T09:02:33.838Z,46.25
2023-04-07T09:05:41.474Z,45.74
2023-04-07T09:08:50.931Z,46.53
2023-04-07T09:11:58.899Z,47.45
2023-04-07T09:15:06.468Z,45.39
2023-04-07T09:18:16.089Z,46.41
2023-04-07T09:21:23.782Z,46.92
2023-04-07T09:24:32.058Z,47.03
2023-04-07T09:27:41.343Z,47.56
2023-04-07T09:30:49.114Z,48.48
2023-04-07T09:33:57.422Z,47.82
2023-04-07T09:37:05.079Z,46.39
2023-04-07T09:40:14.474Z,46.98
2023-04-07T09:43:22.387Z,46.26
2023-04-07T09:46:30.109Z,47.16
2023-04-07T09:49:39.140Z,46.43
2023-04-07T09:52:47.120Z,45.00
2023-04-07T09:55:54.596Z,43.77
2023-04-07T09:59:03.495Z,43.79
2023-04-07T10:02:11.435Z,43.38
2023-04-07T10:05:18.794Z,42.57
2023-04-07T10:08:28.433Z,43.59
2023-04-07T10:11:36.394Z,44.90
2023-04-07T10:14:43.629Z,44.57
2023-04-07T10:17:51.305Z,42.43
2023-04-07T10:21:00.356Z,44.45
2023-04-07T10:24:07.928Z,43.53
2023-04-07T10:27:15.814Z,43.06
2023-04-07T10:30:24.474Z,45.22
2023-04-07T10:33:32.316Z,46.43
2023-04-07T10:36:40.330Z,45.67
2023-04-07T10:39:49.226Z,45.47
2023-04-07T10:42:56.787Z,43.10
2023-04-07T10:46:04.434Z,43.91
2023-04-07T10:49:14.704Z,44.32
2023-04-07T10:52:23.306Z,43.02
2023-04-07T10:55:30.619Z,43.29
2023-04-07T10:58:38.696Z,42.59
2023-04-07T11:01:47.780Z,44.14
2023-04-07T11:04:55.096Z,42.90
2023-04-07T11:08:03.221Z,43.30
2023-04-07T11:11:12.490Z,44.12
2023-04-07T11:14:20.260Z,43.61
2023-04-07T11:17:28.590Z,41.06
2023-04-07T11:20:37.407Z,42.49
2023-04-07T11:23:46.032Z,41.43
2023-04-07T11:26:54.381Z,40.52
2023-04-07T11:30:03.373Z,39.92
2023-04-07T11:33:11.782Z,42.49
2023-04-07T11:36:20.058Z,43.61
2023-04-07T11:39:28.978Z,41.66
2023-04-07T11:42:37.026Z,41.25
2023-04-07T11:45:44.904Z,41.33
2023-04-07T11:48:52.128Z,42.14
2023-04-07T11:52:01.332Z,40.72
2023-04-07T11:55:08.938Z,41.66
2023-04-07T11:58:16.457Z,41.35
2023-04-07T12:01:25.694Z,41.05
2023-04-07T12:04:33.012Z,41.35
2023-04-07T12:07:40.895Z,41.41
2023-04-07T12:10:50.032Z,40.27
2023-04-07T12:13:58.149Z,39.75
2023-04-07T12:17:05.720Z,40.58
2023-04-07T12:20:14.468Z,38.58
2023-04-07T12:23:22.516Z,40.11
2023-04-07T12:26:30.366Z,40.52
2023-04-07T12:29:38.138Z,39.89
2023-04-07T12:32:47.400Z,40.62
2023-04-07T12:35:54.713Z,40.82
2023-04-07T12:39:02.832Z,42.13
2023-04-07T12:42:12.223Z,39.93
2023-04-07T12:45:12.680Z,39.02
2023-04-07T12:48:20.579Z,37.90
2023-04-07T12:51:29.698Z,39.06
2023-04-07T12:54:36.952Z,38.81
2023-04-07T12:57:44.877Z,39.53
2023-04-07T13:00:54.316Z,37.15
2023-04-07T13:04:01.574Z,37.59
2023-04-07T13:07:09.204Z,38.98
2023-04-07T13:10:17.305Z,37.71
2023-04-07T13:13:25.944Z,35.83
2023-04-07T13:16:34.056Z,37.05
2023-04-07T13:19:41.671Z,38.17
2023-04-07T13:23:02.903Z,37.44
2023-04-07T13:25:55.927Z,37.76
2023-04-07T13:29:03.647Z,37.98
2023-04-07T13:32:12.704Z,39.51
2023-04-07T13:35:20.348Z,38.61
2023-04-07T13:38:28.233Z,39.62
2023-04-07T13:41:37.088Z,40.03
2023-04-07T13:44:44.676Z,41.03
2023-04-07T13:51:00.256Z,39.69
2023-04-07T13:54:09.222Z,40.91
2023-04-07T13:57:17.177Z,40.72
2023-04-07T14:00:24.924Z,40.34
2023-04-07T14:03:34.149Z,40.34
2023-04-07T14:06:41.891Z,39.93
2023-04-07T14:09:49.180Z,39.62
2023-04-07T14:12:58.568Z,40.25
2023-04-07T14:16:06.379Z,40.16
2023-04-07T14:19:13.460Z,39.85
2023-04-07T14:22:23.009Z,40.68
2023-04-07T14:25:30.882Z,40.66
2023-04-07T14:28:38.234Z,39.14
2023-04-07T14:31:47.340Z,40.34
2023-04-07T14:34:55.013Z,39.20
2023-04-07T14:38:02.753Z,37.90
2023-04-07T14:41:10.721Z,38.73
2023-04-07T14:44:19.609Z,40.23
2023-04-07T14:47:27.215Z,38.70
2023-04-07T14:50:35.167Z,37.80
2023-04-07T14:53:44.244Z,38.53
2023-04-07T14:56:51.889Z,38.85
2023-04-07T15:00:00.041Z,39.76
2023-04-07T15:03:09.226Z,39.87
2023-04-07T15:06:16.936Z,41.09
2023-04-07T15:09:24.456Z,40.56
2023-04-07T15:12:33.723Z,40.77
2023-04-07T15:15:41.476Z,40.56
2023-04-07T15:18:48.786Z,41.88
2023-04-07T15:21:56.600Z,41.17
2023-04-07T15:25:05.164Z,41.19
2023-04-07T15:28:13.049Z,42.21
2023-04-07T15:31:20.969Z,42.59
2023-04-07T15:34:29.608Z,42.27
2023-04-07T15:37:37.573Z,40.54
2023-04-07T15:40:45.459Z,41.68
2023-04-07T15:43:54.201Z,42.29
2023-04-07T15:47:02.326Z,43.20
2023-04-07T15:50:10.083Z,41.58
2023-04-07T15:53:18.737Z,41.88
2023-04-07T15:56:26.685Z,41.80
2023-04-07T15:59:34.708Z,42.43
2023-04-07T16:02:42.198Z,42.63
2023-04-07T16:05:51.573Z,42.43
2023-04-07T16:08:59.201Z,43.38
2023-04-07T16:12:06.854Z,44.92
2023-04-07T16:15:22.628Z,45.24
2023-04-07T16:18:20.833Z,45.36
2023-04-07T16:21:28.538Z,46.59
2023-04-07T16:24:38.085Z,46.61
2023-04-07T16:27:45.676Z,46.81
2023-04-07T16:30:53.395Z,46.30
2023-04-07T16:34:02.613Z,47.24
2023-04-07T16:37:10.528Z,47.78
2023-04-07T16:40:18.132Z,47.67
2023-04-07T16:43:25.918Z,47.29
2023-04-07T16:46:35.314Z,48.61
2023-04-07T16:49:43.220Z,47.80
2023-04-07T16:52:50.589Z,48.21
2023-04-07T16:56:00.208Z,48.41
2023-04-07T16:59:07.603Z,48.23
2023-04-07T17:02:15.726Z,48.05
2023-04-07T17:05:25.606Z,48.07
2023-04-07T17:08:33.227Z,48.07
2023-04-07T17:11:41.026Z,48.60
2023-04-07T17:14:50.447Z,48.83
2023-04-07T17:17:58.752Z,49.85
2023-04-07T17:21:06.475Z,49.88
2023-04-07T17:24:15.936Z,49.77
2023-04-07T17:27:24.221Z,49.80
2023-04-07T17:30:31.931Z,50.52
2023-04-07T17:33:40.063Z,50.74
2023-04-07T17:36:51.242Z,50.95
2023-04-07T17:39:59.245Z,51.15
2023-04-07T17:43:06.918Z,52.08
2023-04-07T17:46:16.196Z,51.98
2023-04-07T17:49:24.002Z,52.18
2023-04-07T17:52:31.818Z,53.10
2023-04-07T17:55:41.172Z,55.79
2023-04-07T17:58:49.010Z,56.71
2023-04-07T18:01:56.783Z,57.23
2023-04-07T18:05:06.128Z,57.67
2023-04-07T18:08:13.605Z,58.39
2023-04-07T18:11:21.760Z,58.80
2023-04-07T18:14:29.469Z,60.05
2023-04-07T18:17:38.319Z,60.80
2023-04-07T18:20:46.694Z,61.35
2023-04-07T18:23:54.575Z,62.27
2023-04-07T18:27:03.738Z,62.60
2023-04-07T18:30:11.858Z,63.64
2023-04-07T18:33:12.035Z,64.46
2023-04-07T18:36:21.360Z,64.97
2023-04-07T18:39:29.323Z,66.24
2023-04-07T18:42:36.688Z,66.85
2023-04-07T18:45:45.895Z,67.98
2023-04-07T18:48:53.541Z,69.42
2023-04-07T18:52:02.084Z,70.25
2023-04-07T18:55:10.542Z,70.76
2023-04-07T18:58:19.670Z,71.51
2023-04-07T19:01:27.732Z,72.96
2023-04-07T19:04:35.464Z,74.74
2023-04-07T19:07:44.317Z,76.32
2023-04-07T19:10:52.570Z,77.35
2023-04-07T19:14:00.223Z,77.86
2023-04-07T19:17:09.328Z,78.62
2023-04-07T19:20:17.078Z,79.90
2023-04-07T19:23:24.653Z,80.41
2023-04-07T19:26:33.792Z,81.27
2023-04-07T19:29:41.663Z,81.58
2023-04-07T19:32:49.739Z,81.99
2023-04-07T19:35:58.718Z,82.10
2023-04-07T19:39:06.496Z,82.20
2023-04-07T19:42:13.857Z,82.40
2023-04-07T19:45:21.546Z,82.51
2023-04-07T19:48:30.628Z,82.61
2023-04-07T19:51:38.022Z,82.71
2023-04-07T19:54:46.429Z,82.71
2023-04-07T19:57:56.232Z,82.86
2023-04-07T20:01:03.574Z,83.48
2023-04-07T20:04:11.503Z,83.48
2023-04-07T20:07:20.504Z,83.78
2023-04-07T20:10:28.351Z,84.23
2023-04-07T20:13:36.420Z,84.55
2023-04-07T20:16:45.159Z,84.55
2023-04-07T20:19:53.174Z,84.51
2023-04-07T20:23:01.467Z,84.30
2023-04-07T20:26:08.634Z,84.30
2023-04-07T20:29:19.024Z,84.51
2023-04-07T20:32:28.343Z,84.51
2023-04-07T20:35:35.914Z,84.61
2023-04-07T20:38:45.148Z,84.81
2023-04-07T20:41:53.075Z,84.72
2023-04-07T20:45:01.093Z,84.51
2023-04-07T20:48:10.280Z,84.72
2023-04-07T20:51:17.970Z,84.81
2023-04-07T20:54:25.782Z,84.61
2023-04-07T20:57:36.374Z,84.47
2023-04-07T21:00:44.152Z,84.47
2023-04-07T21:03:52.284Z,84.57
2023-04-07T21:06:59.854Z,85.09
2023-04-07T21:10:09.109Z,85.30
2023-04-07T21:13:17.307Z,86.16
2023-04-07T21:16:24.805Z,86.78
2023-04-07T21:19:34.190Z,87.29
2023-04-07T21:22:42.082Z,87.56
2023-04-07T21:25:49.228Z,86.84
2023-04-07T21:28:58.499Z,86.88
2023-04-07T21:32:06.462Z,87.50
2023-04-07T21:35:13.616Z,87.34
2023-04-07T21:38:22.980Z,87.44
2023-04-07T21:41:30.539Z,87.29
2023-04-07T21:44:38.220Z,87.23
2023-04-07T21:47:46.095Z,87.40
2023-04-07T21:50:55.125Z,87.29
2023-04-07T21:54:02.716Z,87.13
2023-04-07T21:57:10.674Z,88.06
2023-04-07T22:00:19.849Z,88.68
2023-04-07T22:03:28.116Z,88.82
2023-04-07T22:06:36.122Z,89.44
2023-04-07T22:09:45.010Z,89.65
2023-04-07T22:12:52.548Z,90.02
2023-04-07T22:16:00.186Z,89.54
2023-04-07T22:19:09.256Z,90.06
2023-04-07T22:22:16.462Z,89.92
2023-04-07T22:25:23.913Z,89.65
2023-04-07T22:28:33.469Z,90.78
2023-04-07T22:31:41.581Z,90.99
2023-04-07T22:34:49.191Z,91.09
2023-04-07T22:37:57.275Z,91.20
2023-04-07T22:41:05.869Z,90.99
2023-04-07T22:44:13.714Z,91.09
2023-04-07T22:47:21.863Z,91.09
2023-04-07T22:50:30.602Z,91.61
2023-04-07T22:53:38.512Z,92.13
2023-04-07T22:56:46.415Z,91.88
2023-04-07T22:59:55.127Z,91.40
2023-04-07T23:03:03.076Z,91.61
2023-04-07T23:06:10.969Z,91.46
2023-04-07T23:09:19.543Z,91.56
2023-04-07T23:12:27.865Z,90.43
2023-04-07T23:15:35.353Z,90.22
2023-04-07T23:18:43.085Z,90.43
2023-04-07T23:21:52.582Z,89.71
2023-04-07T23:25:00.138Z,90.06
2023-04-07T23:28:07.670Z,90.58
2023-04-07T23:31:16.685Z,91.36
2023-04-07T23:34:24.148Z,90.84
2023-04-07T23:37:31.744Z,91.20
2023-04-07T23:40:40.969Z,91.40
2023-04-07T23:43:48.510Z,92.13
2023-04-07T23:46:56.294Z,92.95
2023-04-07T23:50:05.768Z,93.68
2023-04-07T23:53:13.217Z,94.71
2023-04-07T23:56:20.839Z,95.32
2023-04-07T23:59:29.902Z,95.43
